Lecontes Mills, Pennsylvania
Current Conditions -  °F | °C
As of 7:49 PM on Monday 22 Dec 2014 (Local Time) from KFIG Reporting Station
Freezing Rain Freezing Rain  
Wind Chill: 23°   Ceiling: 1100
Heat Index: 30°   Visibility: 1.7mi
Dew Point: 28°   Wind: 8mph
Humidity: 93%   Direction: 70°ENE
Pressure: 30.08"   Gusts: NA
Location:  41.08°N, 78.28°W
Report Text: KFIG 230049Z AUTO 07007KT 1 3/4SM -FZRA BR SCT005 OVC011 M01/M02 A3008 RMK AO2 P0001 I1003
Loading
Personal Weather Stations






























Interactive Weather Map New forecast layout! Learn more

10-Day Weather Forecast

Advertisements
Track Severe Weather on mobile